Time;durP1;ratioP1;P1;durP2;ratioP2;P2;SDS_P1;SDS_P2;PMS_P1;PMS_P2;Temp;Humidity;BMP_temperature;BMP_pressure;BME280_temperature;BME280_humidity;BME280_pressure;Samples;Min_cycle;Max_cycle;Signal;HPM_P1;HPM_P2
2022/04/22 00:00:20;;;;;;;5.88;5.10;;;;;;;10.04;54.93;95531.00;5034470;28;20049;-81
2022/04/22 00:02:48;;;;;;;6.55;5.95;;;;;;;10.04;55.12;95532.81;5034432;28;20049;-80
2022/04/22 00:05:16;;;;;;;8.65;5.88;;;;;;;10.05;55.16;95523.97;5034535;28;20419;-81
2022/04/22 00:07:45;;;;;;;6.72;5.75;;;;;;;10.06;55.19;95520.38;5033757;28;20049;-81
2022/04/22 00:10:13;;;;;;;6.80;5.93;;;;;;;10.09;55.36;95532.97;5044628;28;20063;-80
2022/04/22 00:12:40;;;;;;;7.40;6.00;;;;;;;10.11;55.48;95521.34;5050109;28;20057;-81
2022/04/22 00:15:09;;;;;;;7.22;6.35;;;;;;;10.13;55.24;95512.53;5038153;28;20049;-80
2022/04/22 00:17:36;;;;;;;6.10;5.50;;;;;;;10.11;55.49;95510.94;5033939;28;20060;-81
2022/04/22 00:20:04;;;;;;;7.53;5.88;;;;;;;10.11;55.51;95512.75;5034384;28;20061;-80
2022/04/22 00:22:32;;;;;;;8.27;6.18;;;;;;;10.07;55.56;95503.72;5034580;28;20054;-81
2022/04/22 00:25:01;;;;;;;8.63;7.72;;;;;;;10.03;55.75;95510.34;5034155;28;20060;-81
2022/04/22 00:27:28;;;;;;;7.03;6.25;;;;;;;9.98;55.84;95504.97;5033514;28;20064;-81
2022/04/22 00:29:56;;;;;;;10.93;8.20;;;;;;;9.91;55.96;95504.97;5034559;28;20045;-80
2022/04/22 00:32:23;;;;;;;9.05;7.25;;;;;;;9.83;56.56;95500.78;5033431;28;20058;-81
2022/04/22 00:34:51;;;;;;;8.15;7.20;;;;;;;9.81;56.22;95505.38;5034210;28;20045;-81
2022/04/22 00:37:18;;;;;;;8.10;6.53;;;;;;;9.80;56.82;95493.38;5033419;28;20060;-81
2022/04/22 00:39:46;;;;;;;9.75;7.25;;;;;;;9.79;56.55;95501.38;5034184;28;20045;-80
2022/04/22 00:42:15;;;;;;;8.30;7.25;;;;;;;9.72;56.71;95503.22;5033673;28;20053;-81
2022/04/22 00:44:43;;;;;;;7.68;6.57;;;;;;;9.66;57.59;95497.00;5034106;28;20053;-81
2022/04/22 00:47:10;;;;;;;8.70;7.13;;;;;;;9.69;57.49;95502.63;5032958;28;20050;-81
2022/04/22 00:49:38;;;;;;;9.98;6.88;;;;;;;9.72;57.36;95493.59;5033693;28;20419;-81
2022/04/22 00:52:06;;;;;;;9.77;8.30;;;;;;;9.76;57.34;95494.78;5033403;28;20060;-81
2022/04/22 00:54:34;;;;;;;11.18;8.60;;;;;;;9.85;57.16;95484.94;5033425;28;20053;-81
2022/04/22 00:57:03;;;;;;;8.00;6.97;;;;;;;9.87;56.95;95485.56;5032498;28;20046;-81
2022/04/22 00:59:33;;;;;;;8.93;7.38;;;;;;;9.81;57.35;95475.94;5033163;28;20317;-81
2022/04/22 01:02:00;;;;;;;10.80;8.13;;;;;;;9.74;56.97;95477.78;5033048;28;20511;-81
2022/04/22 01:09:58;;;;;;;10.95;7.93;;;;;;;9.52;57.11;95464.97;5033302;28;20423;-81
2022/04/22 01:12:28;;;;;;;9.50;8.05;;;;;;;9.40;57.72;95457.00;5033059;28;20057;-81
2022/04/22 01:14:58;;;;;;;10.25;8.77;;;;;;;9.31;58.29;95458.19;5033501;28;20111;-81
2022/04/22 01:17:26;;;;;;;11.43;9.55;;;;;;;9.26;58.17;95461.41;5032273;28;20509;-81
2022/04/22 01:19:55;;;;;;;10.77;8.48;;;;;;;9.22;58.76;95443.78;5033403;28;20087;-81
2022/04/22 01:22:24;;;;;;;11.55;8.82;;;;;;;9.24;59.10;95447.00;5033014;28;20057;-81
2022/04/22 01:24:55;;;;;;;10.48;8.55;;;;;;;9.27;59.57;95441.38;5033104;28;20053;-81
2022/04/22 01:27:24;;;;;;;10.75;8.80;;;;;;;9.32;59.39;95440.78;5032262;28;20411;-81
2022/04/22 01:29:51;;;;;;;12.77;9.73;;;;;;;9.34;58.57;95441.41;5033340;28;20060;-80
2022/04/22 01:32:19;;;;;;;11.27;8.63;;;;;;;9.34;58.80;95439.59;5032596;28;20056;-81
2022/04/22 01:34:46;;;;;;;11.40;8.90;;;;;;;9.41;58.67;95435.16;5032941;28;20045;-81
2022/04/22 01:37:14;;;;;;;13.20;10.77;;;;;;;9.40;58.17;95430.97;5032190;28;20055;-81
2022/04/22 01:39:43;;;;;;;10.88;9.02;;;;;;;9.33;58.51;95424.97;5032750;28;20450;-81
2022/04/22 01:42:10;;;;;;;10.95;9.40;;;;;;;9.31;59.03;95421.75;5033342;28;20055;-81
2022/04/22 01:44:38;;;;;;;13.43;9.77;;;;;;;9.33;59.01;95414.53;5032258;28;20057;-81
2022/04/22 01:47:06;;;;;;;15.00;10.73;;;;;;;9.38;58.86;95412.16;5031882;28;20041;-81
2022/04/22 01:49:34;;;;;;;16.30;10.90;;;;;;;9.43;58.81;95409.72;5032535;28;20060;-81
2022/04/22 01:52:01;;;;;;;15.35;11.38;;;;;;;9.42;58.62;95413.34;5032437;28;20518;-81
2022/04/22 01:54:29;;;;;;;14.85;11.25;;;;;;;9.32;58.54;95406.97;5032793;28;20053;-81
2022/04/22 01:56:58;;;;;;;14.38;11.90;;;;;;;9.20;59.02;95409.38;5031655;28;20045;-81
2022/04/22 01:59:25;;;;;;;15.00;11.80;;;;;;;9.12;58.96;95409.56;5032429;28;20053;-81
2022/04/22 02:01:53;;;;;;;13.57;11.32;;;;;;;9.04;59.24;95403.56;5032481;28;20056;-81
2022/04/22 02:04:21;;;;;;;14.23;11.75;;;;;;;8.98;59.27;95403.59;5032376;28;20077;-81
2022/04/22 02:06:48;;;;;;;14.95;11.77;;;;;;;8.90;59.87;95396.78;5031494;28;20072;-80
2022/04/22 02:09:16;;;;;;;15.68;11.98;;;;;;;8.85;59.94;95402.59;5032398;28;20060;-81
2022/04/22 02:11:43;;;;;;;20.25;12.60;;;;;;;8.83;60.11;95401.19;5032354;28;20060;-81
2022/04/22 02:14:12;;;;;;;16.25;11.82;;;;;;;8.85;60.92;95391.38;5032361;28;20050;-81
2022/04/22 02:16:40;;;;;;;15.35;12.18;;;;;;;8.92;60.53;95397.41;5031535;28;20052;-81
2022/04/22 02:19:07;;;;;;;16.83;13.07;;;;;;;8.95;60.21;95394.38;5032339;28;20151;-81
2022/04/22 02:21:35;;;;;;;16.25;13.63;;;;;;;8.95;59.77;95391.00;5032027;28;20053;-81
2022/04/22 02:24:02;;;;;;;17.63;13.82;;;;;;;8.86;59.88;95387.78;5032084;28;20053;-81
2022/04/22 02:28:31;;;;;;;15.65;12.50;;;;;;;8.79;60.34;95386.97;5031440;28;20446;-81
2022/04/22 02:29:18;;;;;;;15.43;11.98;;;;;;;8.81;60.64;95390.16;5032039;28;20507;-80
2022/04/22 02:31:45;;;;;;;15.82;12.73;;;;;;;8.83;60.34;95377.78;5032102;28;20084;-82
2022/04/22 02:34:13;;;;;;;16.38;13.13;;;;;;;8.77;60.17;95374.19;5042948;28;20050;-81
2022/04/22 02:36:42;;;;;;;18.27;14.05;;;;;;;8.73;60.47;95367.78;5044985;28;20465;-82
2022/04/22 02:39:10;;;;;;;17.75;13.27;;;;;;;8.65;60.26;95355.78;5049600;28;20112;-81
2022/04/22 02:47:09;;;;;;;18.20;14.43;;;;;;;8.58;61.25;95339.38;5047483;28;20136;-80
2022/04/22 02:49:37;;;;;;;21.48;15.70;;;;;;;8.52;61.27;95341.97;5032565;28;20052;-81
2022/04/22 02:52:05;;;;;;;20.63;16.00;;;;;;;8.46;61.76;95340.97;5032492;28;20049;-80
2022/04/22 02:54:34;;;;;;;19.45;15.18;;;;;;;8.42;61.94;95343.19;5032258;28;20049;-81
2022/04/22 02:57:02;;;;;;;21.73;15.23;;;;;;;8.38;62.04;95338.56;5048305;28;20061;-80
2022/04/22 02:59:31;;;;;;;27.17;16.02;;;;;;;8.40;62.13;95341.75;5050842;28;20057;-80
2022/04/22 03:02:00;;;;;;;18.20;14.65;;;;;;;8.44;61.90;95338.59;5036440;28;20045;-81
2022/04/22 03:04:27;;;;;;;19.00;15.02;;;;;;;8.51;61.84;95349.00;5036426;28;20049;-81
2022/04/22 03:06:56;;;;;;;19.17;14.88;;;;;;;8.58;61.43;95347.19;5034866;28;20433;-81
2022/04/22 03:09:24;;;;;;;17.65;14.85;;;;;;;8.64;61.18;95349.00;5035821;28;20050;-81
2022/04/22 03:11:51;;;;;;;19.10;15.10;;;;;;;8.64;60.87;95353.41;5036421;28;20076;-81
2022/04/22 03:14:19;;;;;;;21.25;14.27;;;;;;;8.60;60.99;95342.59;5035657;28;20049;-81
2022/04/22 03:16:48;;;;;;;20.33;15.10;;;;;;;8.57;60.90;95342.19;5034754;28;20049;-82
2022/04/22 03:19:15;;;;;;;19.50;14.23;;;;;;;8.55;60.89;95331.19;5035506;28;20045;-82
2022/04/22 03:21:43;;;;;;;19.40;15.30;;;;;;;8.49;61.23;95335.41;5035414;28;20053;-81
2022/04/22 03:24:11;;;;;;;19.15;14.77;;;;;;;8.46;61.63;95340.97;5035434;28;20052;-81
2022/04/22 03:26:39;;;;;;;22.50;16.30;;;;;;;8.41;61.36;95338.19;5034275;28;20085;-80
2022/04/22 03:29:06;;;;;;;20.42;15.82;;;;;;;8.36;61.64;95350.94;5035260;28;20430;-81
2022/04/22 03:31:34;;;;;;;21.17;16.95;;;;;;;8.30;61.78;95341.34;5035142;28;20053;-81
2022/04/22 03:34:02;;;;;;;20.33;15.88;;;;;;;8.27;61.95;95341.75;5035364;28;20053;-81
2022/04/22 03:36:30;;;;;;;21.02;15.98;;;;;;;8.21;62.00;95330.34;5034261;28;20060;-81
2022/04/22 03:38:58;;;;;;;22.80;17.73;;;;;;;8.15;62.65;95338.91;5035086;28;20435;-81
2022/04/22 03:41:25;;;;;;;24.80;16.98;;;;;;;8.10;62.63;95343.91;5035069;28;20515;-81
2022/04/22 03:43:53;;;;;;;18.73;14.85;;;;;;;8.06;63.08;95338.28;5035065;28;20419;-80
2022/04/22 03:46:20;;;;;;;18.52;15.25;;;;;;;8.06;63.20;95335.69;5034214;28;20514;-81
2022/04/22 03:48:47;;;;;;;21.52;15.95;;;;;;;8.07;63.62;95337.31;5034716;28;20136;-81
2022/04/22 03:51:16;;;;;;;19.77;15.30;;;;;;;8.16;63.50;95336.13;5034833;28;20068;-81
2022/04/22 03:53:44;;;;;;;18.63;15.27;;;;;;;8.27;62.96;95336.56;5034633;28;20519;-81
2022/04/22 03:58:57;;;;;;;22.42;16.88;;;;;;;8.37;62.62;95342.94;5035803;28;20400;-81
2022/04/22 04:01:25;;;;;;;21.00;16.02;;;;;;;8.34;62.36;95332.16;5035936;28;20495;-81
2022/04/22 04:03:52;;;;;;;22.58;17.60;;;;;;;8.30;62.32;95325.75;5035402;28;20088;-81
2022/04/22 04:06:23;;;;;;;21.85;16.92;;;;;;;8.29;63.26;95319.75;5033548;28;20053;-81
2022/04/22 04:17:03;;;;;;;22.55;16.48;;;;;;;8.06;62.85;95325.31;5033785;28;20054;-80
2022/04/22 04:25:03;;;;;;;27.10;17.67;;;;;;;7.89;63.11;95322.28;5034322;28;20495;-81
2022/04/22 04:27:31;;;;;;;24.15;17.65;;;;;;;7.86;63.31;95330.47;5033314;28;20419;-81
2022/04/22 04:29:58;;;;;;;23.23;18.23;;;;;;;7.83;63.56;95326.47;5033942;28;20510;-81
2022/04/22 04:32:26;;;;;;;24.58;18.65;;;;;;;7.84;63.93;95328.06;5034143;28;20517;-81
2022/04/22 04:34:53;;;;;;;20.85;16.40;;;;;;;7.89;63.47;95321.47;5034573;28;20053;-81
2022/04/22 04:37:22;;;;;;;22.40;16.77;;;;;;;7.91;63.69;95328.06;5033553;28;20049;-81
2022/04/22 04:39:50;;;;;;;25.80;18.38;;;;;;;7.89;63.86;95324.06;5034358;28;20057;-81
2022/04/22 04:42:17;;;;;;;24.80;17.73;;;;;;;7.89;63.49;95313.69;5034085;28;20046;-81
2022/04/22 04:44:45;;;;;;;23.95;18.77;;;;;;;7.91;63.60;95316.88;5033716;28;20045;-81
2022/04/22 04:47:12;;;;;;;22.23;16.15;;;;;;;7.95;63.63;95318.91;5033316;28;20332;-81
2022/04/22 04:49:40;;;;;;;23.10;17.50;;;;;;;7.99;63.36;95324.50;5034056;28;20500;-81
2022/04/22 04:52:08;;;;;;;23.55;17.35;;;;;;;8.01;63.42;95325.13;5061006;22;20045;-86
2022/04/22 04:54:40;;;;;;;26.35;18.58;;;;;;;8.02;63.59;95324.09;5045181;28;20053;-85
2022/04/22 04:57:08;;;;;;;22.23;15.90;;;;;;;8.04;63.90;95327.31;5044935;28;20073;-88
2022/04/22 04:59:35;;;;;;;26.80;17.95;;;;;;;8.05;63.29;95327.13;5045369;28;20140;-83
2022/04/22 05:02:03;;;;;;;23.73;17.75;;;;;;;8.02;63.77;95321.50;5045379;28;20058;-85
2022/04/22 05:04:31;;;;;;;22.90;17.02;;;;;;;8.08;63.37;95330.31;5046322;28;20060;-85
2022/04/22 05:06:59;;;;;;;27.90;18.38;;;;;;;8.02;63.02;95322.31;5043905;28;20056;-84
2022/04/22 05:09:27;;;;;;;25.90;17.83;;;;;;;8.00;63.47;95331.28;5044642;28;20045;-83
2022/04/22 05:11:56;;;;;;;21.30;16.48;;;;;;;8.01;64.18;95323.31;5045212;28;20114;-84
2022/04/22 05:14:26;;;;;;;27.60;17.38;;;;;;;8.07;63.72;95316.53;5045368;28;20050;-86
2022/04/22 05:16:54;;;;;;;21.88;17.05;;;;;;;8.06;64.04;95322.72;5044157;28;20053;-83
2022/04/22 05:19:24;;;;;;;26.67;18.95;;;;;;;8.09;63.94;95316.31;5045297;28;20045;-83
2022/04/22 05:21:52;;;;;;;24.27;18.13;;;;;;;8.07;63.49;95311.34;5045153;28;20573;-84
2022/04/22 05:24:20;;;;;;;27.05;19.10;;;;;;;8.09;63.77;95308.53;5042535;28;20054;-82
2022/04/22 05:26:47;;;;;;;24.50;18.35;;;;;;;8.10;63.56;95316.13;5035261;28;20049;-81
2022/04/22 05:34:43;;;;;;;29.23;18.73;;;;;;;8.10;63.44;95325.72;5033735;28;20053;-81
2022/04/22 05:37:11;;;;;;;36.10;19.60;;;;;;;8.10;63.32;95323.94;5022585;28;20121;-79
2022/04/22 05:39:39;;;;;;;24.48;19.35;;;;;;;8.09;63.80;95326.72;5034095;28;20045;-82
2022/04/22 05:42:07;;;;;;;23.42;18.08;;;;;;;8.08;63.98;95320.72;5025654;28;20049;-80
2022/04/22 05:44:36;;;;;;;25.02;17.98;;;;;;;8.10;63.95;95315.34;5042134;28;20045;-81
2022/04/22 05:47:05;;;;;;;24.83;17.90;;;;;;;8.13;63.96;95315.72;5042287;28;20069;-82
2022/04/22 05:49:33;;;;;;;25.20;17.63;;;;;;;8.17;64.33;95316.94;5045115;28;20061;-83
2022/04/22 05:52:01;;;;;;;26.73;19.15;;;;;;;8.22;64.22;95317.16;5032721;28;20050;-85
2022/04/22 05:54:28;;;;;;;24.25;18.02;;;;;;;8.23;63.74;95320.56;5034159;28;20524;-84
2022/04/22 05:56:56;;;;;;;22.50;17.67;;;;;;;8.25;63.67;95313.34;5025558;28;20412;-85
2022/04/22 05:59:24;;;;;;;31.58;16.95;;;;;;;8.35;64.85;95315.56;5029590;28;20060;-87
2022/04/22 06:01:53;;;;;;;26.33;17.80;;;;;;;8.45;65.02;95314.19;5039773;28;20136;-88
2022/04/22 06:04:20;;;;;;;23.40;17.13;;;;;;;8.54;64.10;95308.81;5026726;28;20046;-82
2022/04/22 06:06:48;;;;;;;23.58;17.95;;;;;;;8.60;63.70;95308.00;5026163;28;20054;-79
2022/04/22 06:11:57;;;;;;;26.80;19.15;;;;;;;8.68;63.52;95299.19;5002851;28;20057;-85
2022/04/22 06:14:25;;;;;;;21.63;16.58;;;;;;;8.72;63.30;95295.19;5033886;28;20129;-85
2022/04/22 06:16:54;;;;;;;26.35;18.45;;;;;;;8.74;63.00;95295.78;5043754;28;20073;-86
2022/04/22 06:19:21;;;;;;;21.23;16.35;;;;;;;8.77;62.86;95291.00;5035258;28;20061;-81
2022/04/22 06:21:49;;;;;;;21.80;16.70;;;;;;;8.84;62.91;95296.97;5035148;28;20041;-79
2022/04/22 06:24:16;;;;;;;20.95;16.60;;;;;;;8.89;62.57;95298.97;5039729;28;20056;-81
2022/04/22 06:26:44;;;;;;;21.73;17.33;;;;;;;8.92;62.34;95290.78;5044604;28;20136;-84
2022/04/22 06:29:12;;;;;;;23.35;17.98;;;;;;;8.95;62.34;95287.75;5028248;28;20045;-84
2022/04/22 06:31:40;;;;;;;25.65;16.75;;;;;;;8.98;62.13;95302.94;5040382;28;20056;-81
2022/04/22 06:34:10;;;;;;;22.73;17.55;;;;;;;9.05;62.41;95303.75;5050014;28;20076;-87
2022/04/22 06:36:41;;;;;;;21.05;15.77;;;;;;;9.13;62.00;95294.91;5037533;28;20079;-85
2022/04/22 06:39:09;;;;;;;21.27;16.30;;;;;;;9.20;61.97;95297.50;5033555;28;20125;-79
2022/04/22 06:47:15;;;;;;;19.63;15.95;;;;;;;9.45;61.26;95293.22;5013131;28;20058;-82
2022/04/22 06:49:45;;;;;;;21.35;15.98;;;;;;;9.54;60.95;95295.59;5036612;28;20038;-86
2022/04/22 06:52:14;;;;;;;23.73;15.90;;;;;;;9.62;60.95;95296.16;5031868;28;20073;-84
2022/04/22 06:54:42;;;;;;;23.17;17.65;;;;;;;9.75;60.61;95302.28;5033369;28;20751;-83
2022/04/22 06:57:11;;;;;;;20.27;15.65;;;;;;;9.86;60.18;95297.22;5049696;28;20049;-84
2022/04/22 06:59:39;;;;;;;23.40;16.40;;;;;;;9.96;59.98;95299.34;5034842;28;20415;-84
2022/04/22 07:02:08;;;;;;;21.25;15.15;;;;;;;10.08;59.91;95302.13;5047788;28;20042;-79
2022/04/22 07:04:36;;;;;;;21.35;15.27;;;;;;;10.20;59.69;95291.81;5029388;28;20053;-82
2022/04/22 07:07:08;;;;;;;24.10;16.48;;;;;;;10.36;59.50;95298.31;5042031;28;20049;-81
2022/04/22 07:09:36;;;;;;;18.90;15.77;;;;;;;10.49;59.17;95293.00;5043482;28;20042;-80
2022/04/22 07:12:05;;;;;;;19.80;15.68;;;;;;;10.57;58.70;95290.13;5036000;28;20053;-83
2022/04/22 07:14:35;;;;;;;19.45;14.95;;;;;;;10.65;58.51;95297.69;5036518;28;20054;-86
2022/04/22 07:17:04;;;;;;;20.73;16.27;;;;;;;10.76;58.46;95287.56;5047791;28;20076;-83
2022/04/22 07:19:32;;;;;;;19.98;15.55;;;;;;;10.89;58.15;95290.88;5037513;28;20061;-80
2022/04/22 07:22:00;;;;;;;20.00;15.32;;;;;;;11.02;57.89;95294.34;5022699;28;20060;-78
2022/04/22 07:24:29;;;;;;;19.13;15.40;;;;;;;11.11;57.37;95290.44;5022226;28;20062;-80
2022/04/22 07:26:58;;;;;;;18.90;15.23;;;;;;;11.22;57.22;95283.72;5024042;28;20058;-80
2022/04/22 07:29:27;;;;;;;20.27;15.43;;;;;;;11.37;57.42;95278.09;5034543;28;20117;-86
2022/04/22 07:31:55;;;;;;;17.08;15.02;;;;;;;11.51;57.01;95277.72;5042644;28;20115;-78
2022/04/22 07:34:23;;;;;;;18.20;14.75;;;;;;;11.64;56.84;95268.94;5042323;28;20137;-79
2022/04/22 07:36:51;;;;;;;19.17;14.45;;;;;;;11.79;56.18;95273.78;5029916;28;20080;-81
2022/04/22 07:39:19;;;;;;;18.60;13.73;;;;;;;11.93;55.51;95269.19;5029793;28;20053;-81
2022/04/22 07:41:49;;;;;;;20.38;14.82;;;;;;;12.03;55.45;95266.84;5026112;28;20046;-79
2022/04/22 07:47:08;;;;;;;18.58;14.55;;;;;;;12.32;54.42;95270.41;5046124;28;20145;-81
2022/04/22 07:49:36;;;;;;;17.48;13.68;;;;;;;12.41;54.24;95268.25;5037872;28;20056;-80
2022/04/22 07:52:04;;;;;;;17.70;13.98;;;;;;;12.49;53.87;95270.56;5027837;28;20060;-81
2022/04/22 07:54:32;;;;;;;18.33;14.07;;;;;;;12.62;53.83;95263.53;5027935;28;20054;-83
2022/04/22 07:57:01;;;;;;;18.55;14.90;;;;;;;12.74;53.32;95262.47;5027086;28;20054;-83
2022/04/22 07:59:30;;;;;;;14.80;12.95;;;;;;;12.89;53.77;95258.63;5034033;28;20113;-79
2022/04/22 08:01:59;;;;;;;15.00;12.65;;;;;;;13.01;53.22;95256.78;5040631;28;20049;-77
2022/04/22 08:04:28;;;;;;;17.00;13.82;;;;;;;13.18;52.64;95264.72;5024732;28;20092;-78
2022/04/22 08:06:56;;;;;;;18.40;13.52;;;;;;;13.36;52.56;95253.34;5024070;28;20385;-79
2022/04/22 08:09:45;;;;;;;15.32;13.02;;;;;;;13.58;52.33;95256.91;5029307;28;20037;-78
2022/04/22 08:12:15;;;;;;;15.02;11.55;;;;;;;13.79;51.83;95254.66;5059256;28;20033;-83
2022/04/22 08:14:43;;;;;;;17.10;12.43;;;;;;;14.02;51.49;95251.16;5050941;28;20045;-84
2022/04/22 08:17:11;;;;;;;13.95;12.13;;;;;;;14.24;51.03;95256.50;5030647;28;20042;-82
2022/04/22 08:19:43;;;;;;;12.88;11.13;;;;;;;14.43;49.53;95255.22;5029303;28;20053;-79
2022/04/22 08:22:11;;;;;;;12.98;11.18;;;;;;;14.60;48.47;95251.81;5028108;28;20046;-81
2022/04/22 08:24:38;;;;;;;11.40;9.80;;;;;;;14.74;47.95;95252.31;5037911;28;20166;-81
2022/04/22 08:27:06;;;;;;;12.40;11.05;;;;;;;14.90;48.49;95255.94;5043339;28;20046;-81
2022/04/22 08:29:36;;;;;;;13.32;11.60;;;;;;;15.01;47.46;95255.03;5043735;28;20052;-79
2022/04/22 08:32:07;;;;;;;11.95;10.48;;;;;;;15.11;48.01;95239.41;5036018;28;20133;-78
2022/04/22 08:34:34;;;;;;;13.25;11.10;;;;;;;15.21;47.57;95242.16;5023702;28;20068;-80
2022/04/22 08:37:02;;;;;;;16.25;10.63;;;;;;;15.35;47.13;95247.03;5022102;28;20082;-80
2022/04/22 08:39:30;;;;;;;16.88;11.63;;;;;;;15.51;46.03;95240.16;5023138;28;20053;-78
2022/04/22 08:42:00;;;;;;;12.00;10.80;;;;;;;15.59;45.67;95237.06;5022405;28;20053;-80
2022/04/22 08:44:50;;;;;;;12.00;10.10;;;;;;;15.70;45.99;95230.09;5024896;28;20484;-79
2022/04/22 08:50:06;;;;;;;12.50;10.75;;;;;;;15.93;44.97;95232.44;5041455;28;20080;-79
2022/04/22 08:52:35;;;;;;;12.05;10.77;;;;;;;16.02;43.96;95230.94;5041238;28;20049;-81
2022/04/22 08:55:06;;;;;;;12.30;10.38;;;;;;;16.06;43.85;95223.38;5027801;28;20053;-83
2022/04/22 08:57:35;;;;;;;11.45;10.25;;;;;;;16.10;45.62;95224.47;5023144;28;20057;-86
2022/04/22 09:00:07;;;;;;;12.95;11.25;;;;;;;16.11;43.92;95222.63;5022753;28;20060;-82
2022/04/22 09:02:35;;;;;;;10.80;9.70;;;;;;;16.17;43.62;95225.03;5023968;28;20057;-80
2022/04/22 09:05:05;;;;;;;13.20;11.38;;;;;;;16.24;43.27;95222.19;5039999;28;20058;-80
2022/04/22 09:07:33;;;;;;;10.82;9.73;;;;;;;16.34;43.42;95216.25;5039565;28;20045;-84
2022/04/22 09:10:02;;;;;;;11.85;10.43;;;;;;;16.43;42.96;95214.72;5043816;28;20054;-83
2022/04/22 09:12:29;;;;;;;9.48;8.52;;;;;;;16.52;42.04;95215.84;5037578;28;20060;-81
2022/04/22 09:14:58;;;;;;;13.50;9.93;;;;;;;16.61;41.82;95205.63;5037292;28;20512;-81
2022/04/22 09:17:28;;;;;;;10.45;9.23;;;;;;;16.65;41.16;95209.34;5022850;28;20046;-82
2022/04/22 09:19:57;;;;;;;10.35;9.25;;;;;;;16.69;41.21;95205.94;5022146;28;20398;-79
2022/04/22 09:22:26;;;;;;;15.32;9.63;;;;;;;16.76;41.84;95202.28;5026092;28;20046;-81
2022/04/22 09:24:56;;;;;;;10.45;9.27;;;;;;;16.86;41.79;95203.19;5041530;28;20060;-83
2022/04/22 09:27:32;;;;;;;12.65;9.80;;;;;;;16.98;42.05;95199.53;5039238;28;20046;-84
2022/04/22 09:30:02;;;;;;;11.25;9.65;;;;;;;17.08;42.14;95199.59;5039885;28;20049;-85
2022/04/22 09:32:32;;;;;;;12.00;9.18;;;;;;;17.19;41.17;95190.69;5035692;28;20061;-80
2022/04/22 09:35:08;;;;;;;11.05;9.02;;;;;;;17.26;40.31;95196.50;5030791;28;20061;-82
2022/04/22 09:43:24;;;;;;;9.68;8.70;;;;;;;17.41;39.80;95189.72;5021249;28;20054;-77
2022/04/22 09:45:53;;;;;;;9.05;8.18;;;;;;;17.46;40.26;95185.22;5029045;28;20049;-81
2022/04/22 09:48:22;;;;;;;10.90;9.30;;;;;;;17.55;40.45;95187.38;5026243;28;20057;-82
2022/04/22 09:50:53;;;;;;;10.32;8.50;;;;;;;17.62;38.94;95187.91;5024389;28;20133;-80
2022/04/22 09:53:32;;;;;;;9.93;8.45;;;;;;;17.64;38.82;95180.53;5026100;28;20053;-86
2022/04/22 09:56:06;;;;;;;8.98;8.07;;;;;;;17.61;38.31;95186.34;5027751;28;20539;-84
2022/04/22 09:58:34;;;;;;;11.30;7.63;;;;;;;17.61;38.50;95179.22;5043534;28;20057;-82
2022/04/22 10:01:04;;;;;;;9.85;8.23;;;;;;;17.63;38.33;95179.75;5044954;28;20063;-81
2022/04/22 10:03:34;;;;;;;9.57;8.23;;;;;;;17.63;38.88;95184.22;5033334;28;20044;-77
2022/04/22 10:06:03;;;;;;;10.43;8.52;;;;;;;17.64;38.73;95175.25;5021170;28;20060;-78
2022/04/22 10:08:32;;;;;;;8.63;7.78;;;;;;;17.67;38.66;95175.53;5032130;28;20052;-79
2022/04/22 10:11:01;;;;;;;10.30;7.55;;;;;;;17.74;38.31;95166.56;5037338;28;20050;-77
2022/04/22 10:13:34;;;;;;;10.07;7.70;;;;;;;17.84;37.88;95174.50;5024372;28;20049;-77
2022/04/22 10:16:02;;;;;;;8.82;8.00;;;;;;;17.97;38.22;95168.72;5033993;28;20049;-79
2022/04/22 10:18:31;;;;;;;9.30;8.30;;;;;;;18.06;37.98;95172.44;5041224;28;20478;-79
2022/04/22 10:21:00;;;;;;;9.13;8.20;;;;;;;18.10;37.84;95165.59;5034266;28;20496;-76
2022/04/22 10:23:30;;;;;;;8.38;7.43;;;;;;;18.12;37.67;95168.72;5018425;28;20046;-76
2022/04/22 10:25:57;;;;;;;8.60;7.70;;;;;;;18.19;37.82;95168.47;5019465;28;20047;-81
2022/04/22 10:28:27;;;;;;;9.23;7.80;;;;;;;18.20;37.90;95174.53;5020843;28;20539;-80
2022/04/22 10:31:00;;;;;;;10.35;8.30;;;;;;;18.22;37.26;95161.88;5021899;28;20050;-78
2022/04/22 10:33:28;;;;;;;;;;;;;;;18.28;38.20;95174.03;5027318;28;20209;-85
2022/04/22 10:35:59;;;;;;;10.38;8.10;;;;;;;18.31;37.73;95168.97;5034120;28;19921;-80
2022/04/22 10:38:29;;;;;;;10.20;9.13;;;;;;;18.36;37.51;95168.19;5043057;28;20056;-78
2022/04/22 10:40:57;;;;;;;9.73;8.73;;;;;;;18.45;38.08;95163.94;5041453;28;20056;-79
2022/04/22 10:43:27;;;;;;;9.55;8.32;;;;;;;18.56;37.99;95158.66;5031849;28;20046;-77
2022/04/22 10:48:41;;;;;;;9.82;8.93;;;;;;;18.73;37.48;95164.44;5044179;28;20046;-79
2022/04/22 10:53:49;;;;;;;14.30;9.70;;;;;;;18.82;38.23;95168.13;5038373;28;20523;-80
2022/04/22 10:56:48;;;;;;;11.95;9.88;;;;;;;18.80;37.57;95162.31;5052813;28;20042;-79
2022/04/22 10:59:32;;;;;;;10.82;9.70;;;;;;;18.82;38.16;95157.56;5027666;28;20136;-78
2022/04/22 11:02:29;;;;;;;10.50;9.40;;;;;;;18.97;38.23;95156.72;5034576;28;20037;-80
2022/04/22 11:05:34;;;;;;;14.65;11.93;;;;;;;19.12;36.67;95150.59;5037483;28;20058;-82
2022/04/22 11:08:06;;;;;;;10.63;9.60;;;;;;;19.18;36.61;95159.31;5037539;28;20049;-84
2022/04/22 11:11:18;;;;;;;12.45;10.27;;;;;;;19.34;37.60;95147.56;5043748;28;20040;-79
2022/04/22 11:13:50;;;;;;;15.47;10.83;;;;;;;19.38;37.27;95159.19;4975974;28;20055;-79
2022/04/22 11:16:29;;;;;;;15.67;11.17;;;;;;;19.31;36.87;95156.84;5028053;28;20053;-79
2022/04/22 11:19:13;;;;;;;12.77;9.80;;;;;;;19.21;37.11;95169.31;5039359;28;20073;-78
2022/04/22 11:21:42;;;;;;;12.38;10.05;;;;;;;19.12;37.33;95155.88;5044118;28;20107;-77
2022/04/22 11:24:14;;;;;;;13.38;10.95;;;;;;;19.03;37.37;95162.78;5039890;28;20510;-78
2022/04/22 11:26:48;;;;;;;11.27;9.70;;;;;;;18.91;37.54;95153.31;5043691;28;20077;-78
2022/04/22 11:29:17;;;;;;;12.10;10.75;;;;;;;18.84;37.87;95160.72;5041198;28;20132;-77
2022/04/22 11:32:00;;;;;;;12.02;10.13;;;;;;;18.87;37.56;95157.56;5041769;28;20052;-79
2022/04/22 11:35:12;;;;;;;11.70;9.57;;;;;;;18.92;37.60;95157.53;5044541;28;20056;-79
2022/04/22 11:37:41;;;;;;;13.68;9.35;;;;;;;19.01;37.71;95156.97;5050315;28;20058;-80
2022/04/22 11:40:11;;;;;;;10.38;9.27;;;;;;;19.08;38.05;95155.63;5044041;28;20657;-78
2022/04/22 11:42:46;;;;;;;12.05;10.82;;;;;;;19.22;37.93;95150.56;5046599;28;20416;-78
2022/04/22 11:45:19;;;;;;;13.68;11.23;;;;;;;19.31;37.36;95140.97;5047830;28;20057;-80
2022/04/22 11:47:54;;;;;;;13.52;11.07;;;;;;;19.34;37.58;95137.78;5047255;28;20136;-80
2022/04/22 11:50:35;;;;;;;11.68;10.52;;;;;;;19.33;37.16;95136.22;5048839;28;20076;-80
2022/04/22 11:53:08;;;;;;;11.23;10.02;;;;;;;19.37;37.13;95140.94;5041537;28;20454;-78
2022/04/22 11:55:38;;;;;;;11.98;10.55;;;;;;;19.31;37.66;95133.06;5046338;28;20045;-78
2022/04/22 11:58:07;;;;;;;13.82;10.93;;;;;;;19.31;37.09;95138.34;5042678;28;20053;-78
2022/04/22 12:06:19;;;;;;;10.77;9.38;;;;;;;19.39;36.90;95144.13;5022275;28;20056;-79
2022/04/22 12:08:54;;;;;;;13.35;10.45;;;;;;;19.45;36.58;95143.81;5023113;28;20109;-81
2022/04/22 12:11:22;;;;;;;9.25;8.35;;;;;;;19.47;36.31;95146.97;5019770;28;20054;-79
2022/04/22 12:13:53;;;;;;;9.95;7.82;;;;;;;19.48;35.60;95142.47;5031451;28;20415;-79
2022/04/22 12:16:22;;;;;;;10.60;9.07;;;;;;;19.50;35.39;95130.56;5040352;28;20054;-78
2022/04/22 12:18:52;;;;;;;9.52;8.07;;;;;;;19.54;35.32;95133.44;5038936;28;20391;-79
2022/04/22 12:21:20;;;;;;;9.35;8.38;;;;;;;19.57;35.51;95132.91;5037169;28;20042;-79
2022/04/22 12:23:50;;;;;;;8.63;7.82;;;;;;;19.59;34.79;95133.44;5037709;28;20073;-79
2022/04/22 12:26:20;;;;;;;10.05;8.20;;;;;;;19.59;34.02;95136.06;5035352;28;20049;-79
2022/04/22 12:29:00;;;;;;;10.57;8.68;;;;;;;19.56;33.98;95133.97;5037838;28;20148;-79
2022/04/22 12:31:30;;;;;;;8.93;8.02;;;;;;;19.53;33.28;95129.22;5037298;28;20060;-80
2022/04/22 12:34:00;;;;;;;8.73;7.82;;;;;;;19.48;34.29;95126.59;5038783;28;20103;-81
2022/04/22 12:36:29;;;;;;;13.05;8.02;;;;;;;19.48;34.44;95127.41;5040154;28;20076;-81
2022/04/22 12:38:59;;;;;;;11.80;8.30;;;;;;;19.47;34.26;95123.16;5039657;28;20096;-80
2022/04/22 12:41:28;;;;;;;9.30;8.43;;;;;;;19.43;34.84;95118.72;5039885;28;20132;-80